AEZ2383 LIPE-LIEE
Flight info
| Callsign | AEZ2383 |
|---|---|
| Flight time | 1h 7m |
| Altitude | 37000 |
| Route | PELEG M726 GAVRA DCT APSUX DCT PIDUL DCT SUKUN DCT LABOM Q125 KOVAS |
| Aircraft | B738/M-SDE2E3FGHIRWXY/LB1 |
Departure
| Time | 2026-05-07 13:09 |
|---|---|
| Airport | Bologna Guglielmo Marconi Airport (LIPE) |
Arrival
| Time | 2026-05-07 14:16 |
|---|---|
| Airport | Cagliari Elmas Airport (LIEE) |
| Time | Latitude | Longitude | Altitude | Speed | Heading |
|---|---|---|---|---|---|
| 2026-05-07 12:50 | 44.53073 | 11.29320 | 122 ft | 0 kts | 206° |
| 2026-05-07 13:00 | 44.53094 | 11.29337 | 122 ft | 4 kts | 221° |
| 2026-05-07 13:00 | 44.53109 | 11.29365 | 122 ft | 4 kts | 258° |
| 2026-05-07 13:00 | 44.53108 | 11.29392 | 123 ft | 0 kts | 296° |
| 2026-05-07 13:01 | 44.53107 | 11.29392 | 123 ft | 1 kts | 296° |
| 2026-05-07 13:03 | 44.53108 | 11.29391 | 126 ft | 1 kts | 296° |
| 2026-05-07 13:04 | 44.53124 | 11.29375 | 123 ft | 5 kts | 335° |
| 2026-05-07 13:04 | 44.53174 | 11.29324 | 124 ft | 13 kts | 309° |
| 2026-05-07 13:04 | 44.53226 | 11.29189 | 122 ft | 19 kts | 296° |
| 2026-05-07 13:04 | 44.53293 | 11.29005 | 125 ft | 22 kts | 298° |
| 2026-05-07 13:05 | 44.53362 | 11.28821 | 125 ft | 22 kts | 298° |
| 2026-05-07 13:05 | 44.53413 | 11.28685 | 122 ft | 21 kts | 296° |
| 2026-05-07 13:05 | 44.53476 | 11.28504 | 124 ft | 20 kts | 296° |
| 2026-05-07 13:05 | 44.53538 | 11.28328 | 123 ft | 20 kts | 296° |
| 2026-05-07 13:06 | 44.53598 | 11.28157 | 121 ft | 19 kts | 296° |
| 2026-05-07 13:06 | 44.53656 | 11.27992 | 123 ft | 19 kts | 296° |
| 2026-05-07 13:06 | 44.53712 | 11.27834 | 123 ft | 18 kts | 296° |
| 2026-05-07 13:06 | 44.53767 | 11.27679 | 123 ft | 17 kts | 298° |
| 2026-05-07 13:07 | 44.53822 | 11.27534 | 124 ft | 17 kts | 297° |
| 2026-05-07 13:07 | 44.53877 | 11.27395 | 123 ft | 16 kts | 306° |
| 2026-05-07 13:07 | 44.53958 | 11.27289 | 123 ft | 15 kts | 323° |
| 2026-05-07 13:07 | 44.54049 | 11.27226 | 123 ft | 15 kts | 354° |
| 2026-05-07 13:08 | 44.54103 | 11.27314 | 124 ft | 14 kts | 109° |
| 2026-05-07 13:08 | 44.54099 | 11.27326 | 122 ft | 0 kts | 113° |
| 2026-05-07 13:08 | 44.54098 | 11.27328 | 122 ft | 7 kts | 113° |
| 2026-05-07 13:08 | 44.53934 | 11.27792 | 123 ft | 97 kts | 116° |
| 2026-05-07 13:09 | 44.53514 | 11.28970 | 190 ft | 165 kts | 115° |
| 2026-05-07 13:09 | 44.52912 | 11.30412 | 950 ft | 177 kts | 121° |
| 2026-05-07 13:09 | 44.52225 | 11.31814 | 2084 ft | 167 kts | 125° |
| 2026-05-07 13:09 | 44.51719 | 11.33334 | 2819 ft | 187 kts | 92° |
| 2026-05-07 13:10 | 44.52183 | 11.35090 | 3284 ft | 205 kts | 45° |
| 2026-05-07 13:10 | 44.53487 | 11.35921 | 3818 ft | 215 kts | 4° |
| 2026-05-07 13:10 | 44.55032 | 11.36036 | 4319 ft | 229 kts | 5° |
| 2026-05-07 13:10 | 44.56625 | 11.36436 | 5089 ft | 234 kts | 13° |
| 2026-05-07 13:11 | 44.58175 | 11.37186 | 5930 ft | 241 kts | 28° |
| 2026-05-07 13:11 | 44.59362 | 11.38916 | 6441 ft | 258 kts | 67° |
| 2026-05-07 13:11 | 44.59624 | 11.41405 | 7155 ft | 263 kts | 100° |
| 2026-05-07 13:11 | 44.58985 | 11.43752 | 7948 ft | 263 kts | 128° |
| 2026-05-07 13:12 | 44.57604 | 11.45428 | 8741 ft | 261 kts | 159° |
| 2026-05-07 13:12 | 44.55871 | 11.45860 | 9543 ft | 257 kts | 191° |
| 2026-05-07 13:12 | 44.54230 | 11.44960 | 10291 ft | 257 kts | 210° |
| 2026-05-07 13:12 | 44.52419 | 11.44338 | 10547 ft | 289 kts | 180° |
| 2026-05-07 13:13 | 44.50334 | 11.44804 | 10771 ft | 317 kts | 172° |
| 2026-05-07 13:13 | 44.48089 | 11.45391 | 10952 ft | 341 kts | 173° |
| 2026-05-07 13:13 | 44.45661 | 11.45920 | 11134 ft | 364 kts | 174° |
| 2026-05-07 13:13 | 44.43088 | 11.46385 | 11363 ft | 382 kts | 175° |
| 2026-05-07 13:14 | 44.40414 | 11.46804 | 11950 ft | 389 kts | 176° |
| 2026-05-07 13:14 | 44.37705 | 11.47192 | 12658 ft | 392 kts | 176° |
| 2026-05-07 13:14 | 44.34984 | 11.47571 | 13374 ft | 396 kts | 177° |
| 2026-05-07 13:14 | 44.32240 | 11.48027 | 14012 ft | 402 kts | 171° |
| 2026-05-07 13:15 | 44.29619 | 11.49518 | 14606 ft | 414 kts | 149° |
| 2026-05-07 13:15 | 44.27479 | 11.52256 | 15239 ft | 423 kts | 130° |
| 2026-05-07 13:15 | 44.26055 | 11.55865 | 15814 ft | 432 kts | 110° |
| 2026-05-07 13:15 | 44.25280 | 11.59952 | 16387 ft | 438 kts | 104° |
| 2026-05-07 13:16 | 44.24562 | 11.64113 | 16907 ft | 443 kts | 105° |
| 2026-05-07 13:16 | 44.23501 | 11.68133 | 17373 ft | 445 kts | 123° |
| 2026-05-07 13:16 | 44.21524 | 11.71422 | 17947 ft | 441 kts | 143° |
| 2026-05-07 13:16 | 44.18975 | 11.73731 | 18501 ft | 437 kts | 158° |
| 2026-05-07 13:17 | 44.16139 | 11.74996 | 18989 ft | 431 kts | 174° |
| 2026-05-07 13:17 | 44.13140 | 11.75586 | 19540 ft | 431 kts | 177° |
| 2026-05-07 13:17 | 44.10153 | 11.76116 | 20053 ft | 433 kts | 177° |
| 2026-05-07 13:17 | 44.07189 | 11.76648 | 20559 ft | 435 kts | 177° |
| 2026-05-07 13:18 | 44.04192 | 11.77210 | 21098 ft | 436 kts | 177° |
| 2026-05-07 13:18 | 44.01176 | 11.77795 | 21609 ft | 437 kts | 177° |
| 2026-05-07 13:18 | 43.98163 | 11.78393 | 22067 ft | 440 kts | 177° |
| 2026-05-07 13:18 | 43.95121 | 11.79001 | 22520 ft | 442 kts | 177° |
| 2026-05-07 13:19 | 43.92063 | 11.79610 | 22964 ft | 444 kts | 177° |
| 2026-05-07 13:19 | 43.89002 | 11.80217 | 23380 ft | 446 kts | 177° |
| 2026-05-07 13:19 | 43.85914 | 11.80834 | 23786 ft | 448 kts | 177° |
| 2026-05-07 13:19 | 43.82836 | 11.81450 | 24187 ft | 448 kts | 177° |
| 2026-05-07 13:20 | 43.79734 | 11.81806 | 24486 ft | 446 kts | 186° |
| 2026-05-07 13:20 | 43.76643 | 11.81486 | 24759 ft | 444 kts | 193° |
| 2026-05-07 13:20 | 43.73638 | 11.80612 | 25069 ft | 441 kts | 201° |
| 2026-05-07 13:20 | 43.70749 | 11.79204 | 25402 ft | 439 kts | 205° |
| 2026-05-07 13:21 | 43.67872 | 11.77728 | 25713 ft | 441 kts | 205° |
| 2026-05-07 13:21 | 43.64993 | 11.76251 | 25967 ft | 444 kts | 205° |
| 2026-05-07 13:21 | 43.62119 | 11.74786 | 26241 ft | 446 kts | 205° |
| 2026-05-07 13:21 | 43.60152 | 11.73792 | 26475 ft | 446 kts | 204° |
| 2026-05-07 13:22 | 43.56298 | 11.71859 | 27064 ft | 442 kts | 205° |
| 2026-05-07 13:22 | 43.54351 | 11.70888 | 27395 ft | 441 kts | 205° |
| 2026-05-07 13:22 | 43.51465 | 11.69453 | 27825 ft | 440 kts | 205° |
| 2026-05-07 13:22 | 43.48621 | 11.68040 | 28195 ft | 439 kts | 205° |
| 2026-05-07 13:23 | 43.45715 | 11.66598 | 28579 ft | 438 kts | 205° |
| 2026-05-07 13:23 | 43.42882 | 11.65194 | 29005 ft | 437 kts | 205° |
| 2026-05-07 13:23 | 43.40021 | 11.63778 | 29462 ft | 435 kts | 205° |
| 2026-05-07 13:23 | 43.37184 | 11.62375 | 29895 ft | 434 kts | 205° |
| 2026-05-07 13:24 | 43.34343 | 11.60971 | 30297 ft | 432 kts | 205° |
| 2026-05-07 13:24 | 43.31508 | 11.59571 | 30650 ft | 431 kts | 205° |
| 2026-05-07 13:24 | 43.28693 | 11.58182 | 30995 ft | 430 kts | 205° |
| 2026-05-07 13:24 | 43.25883 | 11.56797 | 31336 ft | 430 kts | 205° |
| 2026-05-07 13:25 | 43.23066 | 11.55410 | 31679 ft | 429 kts | 205° |
| 2026-05-07 13:25 | 43.20255 | 11.54027 | 32005 ft | 428 kts | 205° |
| 2026-05-07 13:25 | 43.17461 | 11.52655 | 32344 ft | 427 kts | 205° |
| 2026-05-07 13:25 | 43.14664 | 11.51281 | 32677 ft | 426 kts | 205° |
| 2026-05-07 13:26 | 43.11886 | 11.49919 | 33010 ft | 425 kts | 205° |
| 2026-05-07 13:26 | 43.09101 | 11.48554 | 33330 ft | 424 kts | 205° |
| 2026-05-07 13:26 | 43.06334 | 11.47199 | 33636 ft | 423 kts | 205° |
| 2026-05-07 13:26 | 43.03557 | 11.45841 | 33960 ft | 422 kts | 205° |
| 2026-05-07 13:27 | 43.00799 | 11.44494 | 34250 ft | 421 kts | 205° |
| 2026-05-07 13:27 | 42.98049 | 11.43152 | 34490 ft | 421 kts | 205° |
| 2026-05-07 13:27 | 42.95284 | 11.41802 | 34696 ft | 421 kts | 205° |
| 2026-05-07 13:27 | 42.92530 | 11.40460 | 34919 ft | 421 kts | 205° |
| 2026-05-07 13:28 | 42.89767 | 11.39115 | 35157 ft | 421 kts | 205° |
| 2026-05-07 13:28 | 42.87015 | 11.37776 | 35351 ft | 421 kts | 205° |
| 2026-05-07 13:28 | 42.84283 | 11.36448 | 35507 ft | 422 kts | 205° |
| 2026-05-07 13:28 | 42.81480 | 11.35089 | 35781 ft | 420 kts | 205° |
| 2026-05-07 13:29 | 42.78772 | 11.33777 | 36024 ft | 419 kts | 205° |
| 2026-05-07 13:29 | 42.76018 | 11.32443 | 36243 ft | 419 kts | 206° |
| 2026-05-07 13:29 | 42.73277 | 11.31116 | 36438 ft | 419 kts | 205° |
| 2026-05-07 13:29 | 42.70525 | 11.29786 | 36673 ft | 418 kts | 205° |
| 2026-05-07 13:30 | 42.67779 | 11.28459 | 36924 ft | 418 kts | 205° |
| 2026-05-07 13:30 | 42.65030 | 11.27132 | 36987 ft | 420 kts | 206° |
| 2026-05-07 13:30 | 42.59513 | 11.24471 | 36992 ft | 420 kts | 206° |
| 2026-05-07 13:31 | 42.54069 | 11.21855 | 36999 ft | 416 kts | 206° |
| 2026-05-07 13:31 | 42.48625 | 11.19243 | 36998 ft | 414 kts | 206° |
| 2026-05-07 13:32 | 42.43210 | 11.16648 | 36998 ft | 412 kts | 206° |
| 2026-05-07 13:32 | 42.37812 | 11.14064 | 37006 ft | 411 kts | 206° |
| 2026-05-07 13:33 | 42.32414 | 11.11486 | 37001 ft | 411 kts | 206° |
| 2026-05-07 13:33 | 42.26998 | 11.08903 | 37001 ft | 412 kts | 206° |
| 2026-05-07 13:34 | 42.18873 | 11.05039 | 37000 ft | 414 kts | 206° |
| 2026-05-07 13:35 | 42.13435 | 11.02459 | 37001 ft | 415 kts | 206° |
| 2026-05-07 13:35 | 42.07989 | 10.99879 | 36996 ft | 415 kts | 206° |
| 2026-05-07 13:36 | 42.02541 | 10.97305 | 36998 ft | 415 kts | 206° |
| 2026-05-07 13:36 | 41.97096 | 10.94736 | 37000 ft | 414 kts | 206° |
| 2026-05-07 13:37 | 41.91660 | 10.92176 | 36994 ft | 413 kts | 206° |
| 2026-05-07 13:37 | 41.86262 | 10.89639 | 36996 ft | 412 kts | 207° |
| 2026-05-07 13:38 | 41.80831 | 10.87090 | 36999 ft | 411 kts | 207° |
| 2026-05-07 13:38 | 41.75465 | 10.84576 | 36994 ft | 410 kts | 207° |
| 2026-05-07 13:39 | 41.70095 | 10.82065 | 36992 ft | 408 kts | 207° |
| 2026-05-07 13:39 | 41.64746 | 10.79568 | 36993 ft | 406 kts | 207° |
| 2026-05-07 13:40 | 41.59418 | 10.77085 | 36996 ft | 405 kts | 207° |
| 2026-05-07 13:40 | 41.54099 | 10.74611 | 36991 ft | 403 kts | 208° |
| 2026-05-07 13:41 | 41.48810 | 10.72154 | 36991 ft | 402 kts | 208° |
| 2026-05-07 13:41 | 41.43537 | 10.69709 | 36991 ft | 401 kts | 208° |
| 2026-05-07 13:42 | 41.38314 | 10.67291 | 36986 ft | 399 kts | 208° |
| 2026-05-07 13:42 | 41.33071 | 10.64868 | 36987 ft | 398 kts | 208° |
| 2026-05-07 13:43 | 41.27844 | 10.62455 | 36992 ft | 397 kts | 208° |
| 2026-05-07 13:43 | 41.22635 | 10.60017 | 36982 ft | 392 kts | 212° |
| 2026-05-07 13:43 | 41.20275 | 10.58344 | 36986 ft | 381 kts | 220° |
| 2026-05-07 13:44 | 41.18125 | 10.56337 | 36977 ft | 377 kts | 224° |
| 2026-05-07 13:44 | 41.14460 | 10.51512 | 36994 ft | 367 kts | 235° |
| 2026-05-07 13:45 | 41.11290 | 10.46256 | 36989 ft | 367 kts | 235° |
| 2026-05-07 13:45 | 41.08091 | 10.40980 | 36984 ft | 367 kts | 235° |
| 2026-05-07 13:46 | 41.04878 | 10.35730 | 36987 ft | 366 kts | 234° |
| 2026-05-07 13:46 | 41.01544 | 10.30594 | 36985 ft | 367 kts | 233° |
| 2026-05-07 13:47 | 40.98156 | 10.25554 | 36981 ft | 366 kts | 233° |
| 2026-05-07 13:47 | 40.94785 | 10.20522 | 36990 ft | 365 kts | 233° |
| 2026-05-07 13:48 | 40.91434 | 10.15502 | 36994 ft | 363 kts | 233° |
| 2026-05-07 13:48 | 40.88095 | 10.10500 | 36988 ft | 362 kts | 233° |
| 2026-05-07 13:49 | 40.84764 | 10.05517 | 36984 ft | 361 kts | 233° |
| 2026-05-07 13:49 | 40.81465 | 10.00588 | 36985 ft | 360 kts | 233° |
| 2026-05-07 13:50 | 40.78151 | 9.95646 | 36976 ft | 359 kts | 233° |
| 2026-05-07 13:50 | 40.74844 | 9.90726 | 36977 ft | 358 kts | 232° |
| 2026-05-07 13:51 | 40.71433 | 9.85946 | 36978 ft | 358 kts | 231° |
| 2026-05-07 13:51 | 40.67985 | 9.81232 | 36979 ft | 357 kts | 231° |
| 2026-05-07 13:52 | 40.64554 | 9.76523 | 36980 ft | 356 kts | 231° |
| 2026-05-07 13:52 | 40.61127 | 9.71808 | 36979 ft | 355 kts | 231° |
| 2026-05-07 13:53 | 40.57711 | 9.67110 | 36974 ft | 355 kts | 231° |
| 2026-05-07 13:53 | 40.54299 | 9.62423 | 36975 ft | 354 kts | 231° |
| 2026-05-07 13:54 | 40.50891 | 9.57748 | 36975 ft | 354 kts | 231° |
| 2026-05-07 13:54 | 40.47494 | 9.53096 | 36974 ft | 356 kts | 231° |
| 2026-05-07 13:55 | 40.44062 | 9.48399 | 36973 ft | 357 kts | 231° |
| 2026-05-07 13:55 | 40.40599 | 9.43741 | 36959 ft | 358 kts | 226° |
| 2026-05-07 13:56 | 40.36508 | 9.39910 | 36964 ft | 364 kts | 218° |
| 2026-05-07 13:56 | 40.31848 | 9.37133 | 36958 ft | 369 kts | 211° |
| 2026-05-07 13:57 | 40.27068 | 9.34757 | 36969 ft | 369 kts | 211° |
| 2026-05-07 13:57 | 40.22257 | 9.32363 | 36851 ft | 371 kts | 210° |
| 2026-05-07 13:57 | 40.19824 | 9.31142 | 36212 ft | 377 kts | 210° |
| 2026-05-07 13:58 | 40.17391 | 9.29925 | 35591 ft | 376 kts | 210° |
| 2026-05-07 13:58 | 40.14937 | 9.28696 | 34927 ft | 378 kts | 209° |
| 2026-05-07 13:58 | 40.12468 | 9.27458 | 34213 ft | 381 kts | 209° |
| 2026-05-07 13:58 | 40.09985 | 9.26212 | 33433 ft | 385 kts | 208° |
| 2026-05-07 13:59 | 40.07467 | 9.24951 | 32667 ft | 388 kts | 207° |
| 2026-05-07 13:59 | 40.04932 | 9.23683 | 31884 ft | 391 kts | 207° |
| 2026-05-07 13:59 | 40.02393 | 9.22415 | 31147 ft | 392 kts | 206° |
| 2026-05-07 13:59 | 39.99831 | 9.21137 | 30322 ft | 396 kts | 206° |
| 2026-05-07 14:00 | 39.97230 | 9.19837 | 29401 ft | 409 kts | 205° |
| 2026-05-07 14:00 | 39.94499 | 9.18472 | 28453 ft | 428 kts | 205° |
| 2026-05-07 14:00 | 39.91691 | 9.17074 | 27442 ft | 437 kts | 204° |
| 2026-05-07 14:00 | 39.88864 | 9.15670 | 26395 ft | 443 kts | 204° |
| 2026-05-07 14:01 | 39.85930 | 9.14235 | 25558 ft | 447 kts | 202° |
| 2026-05-07 14:01 | 39.82975 | 9.13113 | 24783 ft | 446 kts | 198° |
| 2026-05-07 14:01 | 39.79954 | 9.12133 | 23936 ft | 447 kts | 197° |
| 2026-05-07 14:01 | 39.76931 | 9.11176 | 23028 ft | 446 kts | 197° |
| 2026-05-07 14:02 | 39.73937 | 9.10208 | 22194 ft | 442 kts | 197° |
| 2026-05-07 14:02 | 39.70970 | 9.09228 | 21495 ft | 436 kts | 197° |
| 2026-05-07 14:02 | 39.68039 | 9.08295 | 20821 ft | 431 kts | 192° |
| 2026-05-07 14:02 | 39.65051 | 9.08220 | 20053 ft | 433 kts | 174° |
| 2026-05-07 14:03 | 39.62135 | 9.09205 | 19370 ft | 433 kts | 159° |
| 2026-05-07 14:03 | 39.59495 | 9.11083 | 18748 ft | 431 kts | 150° |
| 2026-05-07 14:03 | 39.57015 | 9.13146 | 18121 ft | 426 kts | 149° |
| 2026-05-07 14:03 | 39.54521 | 9.15263 | 17391 ft | 422 kts | 149° |
| 2026-05-07 14:04 | 39.52072 | 9.17335 | 16681 ft | 417 kts | 149° |
| 2026-05-07 14:04 | 39.49673 | 9.19344 | 16014 ft | 413 kts | 149° |
| 2026-05-07 14:04 | 39.47236 | 9.21364 | 15333 ft | 409 kts | 149° |
| 2026-05-07 14:04 | 39.44870 | 9.23311 | 14689 ft | 406 kts | 150° |
| 2026-05-07 14:05 | 39.42501 | 9.25252 | 14041 ft | 403 kts | 150° |
| 2026-05-07 14:05 | 39.40112 | 9.27204 | 13318 ft | 400 kts | 150° |
| 2026-05-07 14:05 | 39.37799 | 9.29093 | 12706 ft | 395 kts | 149° |
| 2026-05-07 14:05 | 39.35460 | 9.31002 | 12138 ft | 389 kts | 149° |
| 2026-05-07 14:06 | 39.33234 | 9.32817 | 11824 ft | 378 kts | 149° |
| 2026-05-07 14:06 | 39.31056 | 9.34593 | 11721 ft | 361 kts | 149° |
| 2026-05-07 14:06 | 39.28978 | 9.36288 | 11610 ft | 347 kts | 149° |
| 2026-05-07 14:06 | 39.26972 | 9.37921 | 11526 ft | 334 kts | 149° |
| 2026-05-07 14:07 | 39.25041 | 9.39494 | 11449 ft | 322 kts | 149° |
| 2026-05-07 14:07 | 39.23173 | 9.41014 | 11392 ft | 312 kts | 149° |
| 2026-05-07 14:07 | 39.21371 | 9.42480 | 11311 ft | 302 kts | 149° |
| 2026-05-07 14:07 | 39.19624 | 9.43903 | 11238 ft | 291 kts | 149° |
| 2026-05-07 14:08 | 39.17941 | 9.45273 | 11187 ft | 282 kts | 149° |
| 2026-05-07 14:08 | 39.16847 | 9.46162 | 11136 ft | 276 kts | 149° |
| 2026-05-07 14:08 | 39.14734 | 9.47879 | 11073 ft | 265 kts | 149° |
| 2026-05-07 14:08 | 39.13196 | 9.49116 | 11019 ft | 257 kts | 153° |
| 2026-05-07 14:09 | 39.12081 | 9.49655 | 10934 ft | 249 kts | 172° |
| 2026-05-07 14:09 | 39.10404 | 9.49537 | 10848 ft | 240 kts | 195° |
| 2026-05-07 14:09 | 39.08909 | 9.48632 | 10622 ft | 238 kts | 213° |
| 2026-05-07 14:09 | 39.07171 | 9.46920 | 10266 ft | 239 kts | 217° |
| 2026-05-07 14:10 | 39.06308 | 9.46031 | 10090 ft | 239 kts | 217° |
| 2026-05-07 14:10 | 39.05002 | 9.44698 | 9826 ft | 239 kts | 216° |
| 2026-05-07 14:10 | 39.03688 | 9.43373 | 9536 ft | 239 kts | 216° |
| 2026-05-07 14:10 | 39.02379 | 9.42061 | 9262 ft | 239 kts | 216° |
| 2026-05-07 14:11 | 39.01152 | 9.40615 | 8948 ft | 242 kts | 234° |
| 2026-05-07 14:11 | 39.00595 | 9.38580 | 8621 ft | 247 kts | 266° |
| 2026-05-07 14:11 | 39.00972 | 9.36432 | 8301 ft | 251 kts | 297° |
| 2026-05-07 14:11 | 39.01992 | 9.34463 | 7376 ft | 278 kts | 309° |
| 2026-05-07 14:12 | 39.03244 | 9.32468 | 6628 ft | 296 kts | 310° |
| 2026-05-07 14:12 | 39.04582 | 9.30382 | 6153 ft | 302 kts | 313° |
| 2026-05-07 14:12 | 39.06014 | 9.28462 | 6047 ft | 291 kts | 316° |
| 2026-05-07 14:12 | 39.07446 | 9.26637 | 5684 ft | 290 kts | 316° |
| 2026-05-07 14:13 | 39.08859 | 9.24818 | 5084 ft | 286 kts | 316° |
| 2026-05-07 14:13 | 39.10248 | 9.22976 | 4317 ft | 289 kts | 315° |
| 2026-05-07 14:13 | 39.11646 | 9.21155 | 3562 ft | 290 kts | 319° |
| 2026-05-07 14:13 | 39.13125 | 9.19411 | 2983 ft | 284 kts | 321° |
| 2026-05-07 14:14 | 39.14575 | 9.17737 | 2562 ft | 274 kts | 321° |
| 2026-05-07 14:14 | 39.15959 | 9.16128 | 2197 ft | 263 kts | 321° |
| 2026-05-07 14:14 | 39.17288 | 9.14577 | 1876 ft | 250 kts | 321° |
| 2026-05-07 14:14 | 39.18541 | 9.13115 | 1538 ft | 235 kts | 321° |
| 2026-05-07 14:15 | 39.19715 | 9.11750 | 1225 ft | 221 kts | 321° |
| 2026-05-07 14:15 | 39.20817 | 9.10468 | 960 ft | 207 kts | 319° |
| 2026-05-07 14:15 | 39.21832 | 9.09284 | 699 ft | 188 kts | 316° |
| 2026-05-07 14:15 | 39.22764 | 9.08190 | 417 ft | 171 kts | 315° |
| 2026-05-07 14:16 | 39.23605 | 9.07226 | 222 ft | 150 kts | 314° |
| 2026-05-07 14:16 | 39.24337 | 9.06369 | 28 ft | 136 kts | 314° |
| 2026-05-07 14:16 | 39.24962 | 9.05631 | 17 ft | 105 kts | 331° |
| 2026-05-07 14:16 | 39.25298 | 9.05237 | 15 ft | 12 kts | 315° |
| 2026-05-07 14:17 | 39.25358 | 9.05160 | 16 ft | 13 kts | 315° |
| 2026-05-07 14:17 | 39.25431 | 9.05070 | 17 ft | 16 kts | 321° |
| 2026-05-07 14:17 | 39.25522 | 9.04981 | 17 ft | 17 kts | 323° |
| 2026-05-07 14:17 | 39.25616 | 9.04892 | 19 ft | 16 kts | 326° |
| 2026-05-07 14:18 | 39.25721 | 9.04855 | 19 ft | 16 kts | 5° |
| 2026-05-07 14:18 | 39.25769 | 9.04955 | 18 ft | 15 kts | 108° |
| 2026-05-07 14:18 | 39.25713 | 9.05065 | 17 ft | 14 kts | 133° |
| 2026-05-07 14:18 | 39.25642 | 9.05152 | 17 ft | 14 kts | 142° |
| 2026-05-07 14:19 | 39.25571 | 9.05228 | 17 ft | 13 kts | 139° |
| 2026-05-07 14:19 | 39.25502 | 9.05304 | 17 ft | 13 kts | 139° |
| 2026-05-07 14:19 | 39.25442 | 9.05386 | 16 ft | 12 kts | 126° |
| 2026-05-07 14:19 | 39.25406 | 9.05485 | 18 ft | 12 kts | 105° |
| 2026-05-07 14:20 | 39.25383 | 9.05589 | 16 ft | 12 kts | 105° |
| 2026-05-07 14:20 | 39.25357 | 9.05660 | 16 ft | 8 kts | 103° |
| 2026-05-07 14:20 | 39.25373 | 9.05725 | 17 ft | 8 kts | 59° |
| 2026-05-07 14:20 | 39.25377 | 9.05767 | 16 ft | 2 kts | 116° |
| 2026-05-07 14:21 | 39.25370 | 9.05781 | 16 ft | 2 kts | 129° |
| 2026-05-07 14:21 | 39.25359 | 9.05791 | 16 ft | 2 kts | 143° |
| 2026-05-07 14:21 | 39.25349 | 9.05801 | 16 ft | 2 kts | 143° |
| 2026-05-07 14:21 | 39.25340 | 9.05810 | 16 ft | 2 kts | 143° |
| 2026-05-07 14:22 | 39.25335 | 9.05814 | 16 ft | 0 kts | 143° |